Latest Weather Observations for Banana Bank

IDQ60801

Issued at 9:35 am EST Thursday 24 April 2014 (issued every 30 minutes, with the page automatically refreshed every 10 minutes)

About weather observations | Map of weather stations | Latest weather observations for QLD | Other Formats
Station Details ID: 040925 Name: BANANA BANK NORTH BEACON Lat: -27.53 Lon: 153.33 Height: 7.0 m
Data from the previous 72 hours. | See also: Recent months for locations in Queensland
Date/Time
EST
Temp
°C
App
Temp
°C
Dew
Point
Rel
Hum
%
Delta-T
°C
Wind Press
QNH
hPa
Press
MSL
hPa
Rain
since 9 am
mm
Dir
 
Spd
km/h
Gust
km/h
Spd
kts
Gust
kts
24/09:30am - - - - - ESE 0 0 0 0 - - -
24/09:00am - - - - - SE 0 0 0 0 - - -
24/08:30am - - - - - SSW 4 6 2 3 - - -
24/08:00am - - - - - W 2 7 1 4 - - -
24/07:30am - - - - - SW 4 7 2 4 - - -
24/07:00am - - - - - SW 7 9 4 5 - - -
24/06:30am - - - - - SSW 6 7 3 4 - - -
24/06:00am - - - - - S 6 7 3 4 - - -
24/05:30am - - - - - S 7 9 4 5 - - -
24/05:00am - - - - - SSW 9 11 5 6 - - -
24/04:30am - - - - - SSW 6 7 3 4 - - -
24/04:00am - - - - - SSW 6 7 3 4 - - -
24/03:30am - - - - - SSW 4 6 2 3 - - -
24/03:00am - - - - - SSW 4 6 2 3 - - -
24/02:30am - - - - - SSW 6 7 3 4 - - -
24/02:00am - - - - - SW 6 7 3 4 - - -
24/01:30am - - - - - SW 7 9 4 5 - - -
24/01:00am - - - - - CALM 0 0 0 0 - - -
24/12:30am - - - - - S 4 6 2 3 - - -
24/12:00am - - - - - SSW 4 6 2 3 - - -
 
Date/Time
EST
Temp
°C
App
Temp
°C
Dew
Point
Rel
Hum
%
Delta-T
°C
Wind Press
QNH
hPa
Press
MSL
hPa
Rain
since 9 am
mm
Dir
 
Spd
km/h
Gust
km/h
Spd
kts
Gust
kts
23/11:30pm - - - - - W 6 7 3 4 - - -
23/11:00pm - - - - - NW 9 11 5 6 - - -
23/10:30pm - - - - - NNW 13 15 7 8 - - -
23/10:00pm - - - - - NW 15 19 8 10 - - -
23/09:30pm - - - - - NNW 20 22 11 12 - - -
23/09:00pm - - - - - N 20 24 11 13 - - -
23/08:30pm - - - - - N 15 19 8 10 - - -
23/08:00pm - - - - - N 15 20 8 11 - - -
23/07:30pm - - - - - NNE 11 13 6 7 - - -
23/07:00pm - - - - - NNE 11 13 6 7 - - -
23/06:30pm - - - - - NNE 13 17 7 9 - - -
23/06:00pm - - - - - NNE 15 17 8 9 - - -
23/05:30pm - - - - - NNE 15 17 8 9 - - -
23/05:00pm - - - - - NNE 17 19 9 10 - - -
23/04:30pm - - - - - NNE 15 17 8 9 - - -
23/04:00pm - - - - - NNE 11 13 6 7 - - -
23/03:30pm - - - - - NNE 9 15 5 8 - - -
23/03:00pm - - - - - N 15 17 8 9 - - -
23/02:30pm - - - - - N 13 15 7 8 - - -
23/02:00pm - - - - - N 15 17 8 9 - - -
23/01:30pm - - - - - N 13 15 7 8 - - -
23/01:00pm - - - - - N 15 19 8 10 - - -
23/12:30pm - - - - - N 13 15 7 8 - - -
23/12:00pm - - - - - N 9 11 5 6 - - -
23/11:30am - - - - - NNE 6 6 3 3 - - -
23/11:00am - - - - - ENE 6 7 3 4 - - -
23/10:30am - - - - - E 6 7 3 4 - - -
23/10:00am - - - - - E 4 7 2 4 - - -
23/09:30am - - - - - S 7 9 4 5 - - -
23/09:00am - - - - - SW 7 9 4 5 - - -
23/08:30am - - - - - SW 4 6 2 3 - - -
23/08:00am - - - - - SSW 2 2 1 1 - - -
23/07:30am - - - - - SSW 6 7 3 4 - - -
23/07:00am - - - - - SSW 7 7 4 4 - - -
23/06:30am - - - - - SSW 6 7 3 4 - - -
23/06:00am - - - - - S 6 6 3 3 - - -
23/05:30am - - - - - S 6 7 3 4 - - -
23/05:00am - - - - - S 4 4 2 2 - - -
23/04:30am - - - - - CALM 0 2 0 1 - - -
23/04:00am - - - - - S 4 6 2 3 - - -
23/03:30am - - - - - S 6 7 3 4 - - -
23/03:00am - - - - - SW 6 7 3 4 - - -
23/02:30am - - - - - WSW 4 6 2 3 - - -
23/02:00am - - - - - SW 4 6 2 3 - - -
23/01:30am - - - - - SW 4 6 2 3 - - -
23/01:00am - - - - - SW 6 7 3 4 - - -
23/12:30am - - - - - WSW 4 7 2 4 - - -
23/12:00am - - - - - N 7 9 4 5 - - -
 
Date/Time
EST
Temp
°C
App
Temp
°C
Dew
Point
Rel
Hum
%
Delta-T
°C
Wind Press
QNH
hPa
Press
MSL
hPa
Rain
since 9 am
mm
Dir
 
Spd
km/h
Gust
km/h
Spd
kts
Gust
kts
22/11:30pm - - - - - N 9 11 5 6 - - -
22/11:00pm - - - - - N 9 11 5 6 - - -
22/10:30pm - - - - - N 11 13 6 7 - - -
22/10:00pm - - - - - N 11 13 6 7 - - -
22/09:30pm - - - - - NNE 9 11 5 6 - - -
22/09:00pm - - - - - NNE 11 13 6 7 - - -
22/08:30pm - - - - - NNE 11 13 6 7 - - -
22/08:00pm - - - - - NE 11 13 6 7 - - -
22/07:30pm - - - - - NE 9 11 5 6 - - -
22/07:00pm - - - - - NNE 11 13 6 7 - - -
22/06:30pm - - - - - NE 13 15 7 8 - - -
22/06:00pm - - - - - NNE 13 17 7 9 - - -
22/05:30pm - - - - - NNE 15 17 8 9 - - -
22/05:00pm - - - - - NNE 13 17 7 9 - - -
22/04:30pm - - - - - N 17 20 9 11 - - -
22/04:00pm - - - - - N 15 19 8 10 - - -
22/03:30pm - - - - - N 11 15 6 8 - - -
22/03:00pm - - - - - N 11 13 6 7 - - -
22/02:30pm - - - - - NNW 13 17 7 9 - - -
22/02:00pm - - - - - NNW 11 15 6 8 - - -
22/01:30pm - - - - - NNW 9 11 5 6 - - -
22/01:00pm - - - - - NNW 9 11 5 6 - - -
22/12:30pm - - - - - NNW 9 13 5 7 - - -
22/12:00pm - - - - - NW 13 17 7 9 - - -
22/11:30am - - - - - NW 13 15 7 8 - - -
22/11:00am - - - - - NW 11 13 6 7 - - -
22/10:30am - - - - - CALM 0 0 0 0 - - -
22/10:00am - - - - - CALM 0 0 0 0 - - -
22/09:30am - - - - - CALM 0 0 0 0 - - -
22/09:00am - - - - - CALM 0 0 0 0 - - -
22/08:30am - - - - - SSE 2 4 1 2 - - -
22/08:00am - - - - - S 2 4 1 2 - - -
22/07:30am - - - - - SSW 7 9 4 5 - - -
22/07:00am - - - - - SSW 4 4 2 2 - - -
22/06:30am - - - - - S 2 4 1 2 - - -
22/06:00am - - - - - S 4 6 2 3 - - -
22/05:30am - - - - - S 4 6 2 3 - - -
22/05:00am - - - - - SSW 4 6 2 3 - - -
22/04:30am - - - - - SSW 6 7 3 4 - - -
22/04:00am - - - - - SSW 7 7 4 4 - - -
22/03:30am - - - - - WSW 7 9 4 5 - - -
22/03:00am - - - - - W 7 9 4 5 - - -
22/02:30am - - - - - W 7 9 4 5 - - -
22/02:00am - - - - - WNW 9 15 5 8 - - -
22/01:30am - - - - - N 19 20 10 11 - - -
22/01:00am - - - - - N 19 20 10 11 - - -
22/12:30am - - - - - N 19 22 10 12 - - -
22/12:00am - - - - - N 19 20 10 11 - - -
 
Date/Time
EST
Temp
°C
App
Temp
°C
Dew
Point
Rel
Hum
%
Delta-T
°C
Wind Press
QNH
hPa
Press
MSL
hPa
Rain
since 9 am
mm
Dir
 
Spd
km/h
Gust
km/h
Spd
kts
Gust
kts
21/11:30pm - - - - - N 17 20 9 11 - - -
21/11:00pm - - - - - N 19 20 10 11 - - -
21/10:30pm - - - - - N 19 22 10 12 - - -
21/10:00pm - - - - - N 19 22 10 12 - - -
21/09:30pm - - - - - N 19 20 10 11 - - -
21/09:00pm - - - - - N 17 20 9 11 - - -
21/08:30pm - - - - - N 19 22 10 12 - - -
21/08:00pm - - - - - N 17 19 9 10 - - -
21/07:30pm - - - - - N 19 24 10 13 - - -
21/07:00pm - - - - - N 20 26 11 14 - - -
21/06:30pm - - - - - NNE 19 22 10 12 - - -
21/06:00pm - - - - - NNE 19 24 10 13 - - -
21/05:30pm - - - - - NNE 22 26 12 14 - - -
21/05:00pm - - - - - NNE 20 26 11 14 - - -
21/04:30pm - - - - - NNE 20 24 11 13 - - -
21/04:00pm - - - - - NNE 17 20 9 11 - - -
21/03:30pm - - - - - N 17 20 9 11 - - -
21/03:00pm - - - - - N 17 19 9 10 - - -
21/02:30pm - - - - - N 15 19 8 10 - - -
21/02:00pm - - - - - N 17 19 9 10 - - -
21/01:30pm - - - - - N 13 15 7 8 - - -
21/01:00pm - - - - - N 13 15 7 8 - - -
21/12:30pm - - - - - N 9 13 5 7 - - -
21/12:00pm - - - - - N 11 13 6 7 - - -
21/11:30am - - - - - N 9 11 5 6 - - -
21/11:00am - - - - - N 6 9 3 5 - - -
21/10:30am - - - - - NNE 4 6 2 3 - - -
21/10:00am - - - - - CALM 0 0 0 0 - - -

Other Formats:

Comma delimited format used in spreadsheet applications
http://www.bom.gov.au/fwo/IDQ60801/IDQ60801.94591.axf

JavaScript Object Notation format (JSON) in row-major order
http://www.bom.gov.au/fwo/IDQ60801/IDQ60801.94591.json